Time;durP1;ratioP1;P1;durP2;ratioP2;P2;SDS_P1;SDS_P2;PMS_P1;PMS_P2;Temp;Humidity;BMP_temperature;BMP_pressure;BME280_temperature;BME280_humidity;BME280_pressure;Samples;Min_cycle;Max_cycle;Signal;HPM_P1;HPM_P2
2022/01/06 00:01:37;;;;;;;;;;;;;;;;;;5078413;28;19966;-63
2022/01/06 00:04:03;;;;;;;;;;;;;;;;;;5082196;28;19979;-63
2022/01/06 00:06:30;;;;;;;;;;;;;;;;;;5065367;28;19975;-63
2022/01/06 00:08:57;;;;;;;;;;;;;;;;;;5070060;28;19924;-63
2022/01/06 00:11:24;;;;;;;;;;;;;;;;;;5064728;28;21111;-63
2022/01/06 00:14:02;;;;;;;;;;;;;;;;;;5073139;28;19960;-63
2022/01/06 00:24:13;;;;;;;;;;;;;;;;;;5083600;28;19923;-63
2022/01/06 00:26:39;;;;;;;;;;;;;;;;;;5076627;28;19931;-63
2022/01/06 00:29:05;;;;;;;;;;;;;;;;;;5069974;28;19939;-63
2022/01/06 00:31:31;;;;;;;;;;;;;;;;;;5083388;28;20011;-63
2022/01/06 00:33:57;;;;;;;;;;;;;;;;;;5069576;28;19931;-63
2022/01/06 00:36:23;;;;;;;;;;;;;;;;;;5065833;28;19925;-63
2022/01/06 00:38:49;;;;;;;;;;;;;;;;;;5076752;28;20022;-63
2022/01/06 00:41:15;;;;;;;;;;;;;;;;;;5098373;28;19935;-62
2022/01/06 00:43:41;;;;;;;;;;;;;;;;;;5065490;28;19940;-64
2022/01/06 00:46:07;;;;;;;;;;;;;;;;;;5069660;28;19932;-63
2022/01/06 00:48:33;;;;;;;;;;;;;;;;;;5080313;28;19924;-63
2022/01/06 00:50:59;;;;;;;;;;;;;;;;;;5072311;28;20358;-63
2022/01/06 00:53:25;;;;;;;;;;;;;;;;;;5083308;28;19924;-63
2022/01/06 00:55:51;;;;;;;;;;;;;;;;;;5087197;28;19933;-63
2022/01/06 00:58:17;;;;;;;;;;;;;;;;;;5081742;28;19921;-62
2022/01/06 01:00:44;;;;;;;;;;;;;;;;;;5068662;28;19924;-63
2022/01/06 01:03:10;;;;;;;;;;;;;;;;;;5074159;28;19935;-63
2022/01/06 01:05:36;;;;;;;;;;;;;;;;;;5077916;28;20412;-63
2022/01/06 01:08:02;;;;;;;;;;;;;;;;;;5079799;28;20019;-63
2022/01/06 01:10:28;;;;;;;;;;;;;;;;;;5086432;28;19924;-63
2022/01/06 01:12:54;;;;;;;;;;;;;;;;;;5086973;28;19928;-63
2022/01/06 01:15:21;;;;;;;;;;;;;;;;;;5086657;28;20426;-65
2022/01/06 01:17:48;;;;;;;;;;;;;;;;;;5076449;28;19947;-63
2022/01/06 01:20:14;;;;;;;;;;;;;;;;;;5082635;28;19932;-63
2022/01/06 01:22:40;;;;;;;;;;;;;;;;;;5069043;28;19924;-63
2022/01/06 01:25:06;;;;;;;;;;;;;;;;;;5082754;28;19931;-62
2022/01/06 01:27:38;;;;;;;;;;;;;;;;;;5066347;28;19968;-63
2022/01/06 01:30:09;;;;;;;;;;;;;;;;;;5074905;28;19936;-63
2022/01/06 01:32:37;;;;;;;;;;;;;;;;;;5086690;28;20352;-64
2022/01/06 01:35:03;;;;;;;;;;;;;;;;;;5085067;28;19924;-63
2022/01/06 01:37:29;;;;;;;;;;;;;;;;;;5075219;28;20710;-63
2022/01/06 01:39:55;;;;;;;;;;;;;;;;;;5068759;28;20362;-62
2022/01/06 01:42:21;;;;;;;;;;;;;;;;;;5068013;28;19994;-63
2022/01/06 01:44:50;;;;;;;;;;;;;;;;;;5067973;28;19973;-62
2022/01/06 01:47:23;;;;;;;;;;;;;;;;;;5075972;28;19928;-62
2022/01/06 01:49:54;;;;;;;;;;;;;;;;;;5068952;28;19999;-63
2022/01/06 01:52:20;;;;;;;;;;;;;;;;;;5075061;28;19926;-63
2022/01/06 01:54:46;;;;;;;;;;;;;;;;;;5080865;28;19978;-62
2022/01/06 01:57:12;;;;;;;;;;;;;;;;;;5080937;28;19927;-63
2022/01/06 01:59:38;;;;;;;;;;;;;;;;;;5081463;28;20273;-63
2022/01/06 02:02:04;;;;;;;;;;;;;;;;;;5086545;28;19928;-62
2022/01/06 02:04:30;;;;;;;;;;;;;;;;;;5085236;28;20412;-63
2022/01/06 02:06:56;;;;;;;;;;;;;;;;;;5071940;28;19998;-63
2022/01/06 02:09:22;;;;;;;;;;;;;;;;;;5079055;28;20370;-63
2022/01/06 02:11:48;;;;;;;;;;;;;;;;;;5086696;28;19931;-63
2022/01/06 02:14:14;;;;;;;;;;;;;;;;;;5071920;28;19978;-63
2022/01/06 02:16:40;;;;;;;;;;;;;;;;;;5079716;28;19924;-63
2022/01/06 02:19:06;;;;;;;;;;;;;;;;;;5085771;28;19924;-63
2022/01/06 02:21:32;;;;;;;;;;;;;;;;;;5079881;28;19929;-62
2022/01/06 02:23:58;;;;;;;;;;;;;;;;;;5068993;28;19948;-63
2022/01/06 02:26:24;;;;;;;;;;;;;;;;;;5079033;28;19931;-63
2022/01/06 02:28:50;;;;;;;;;;;;;;;;;;5085285;28;19977;-63
2022/01/06 02:31:16;;;;;;;;;;;;;;;;;;5080447;28;19933;-63
2022/01/06 02:33:42;;;;;;;;;;;;;;;;;;5067982;28;19924;-63
2022/01/06 02:36:08;;;;;;;;;;;;;;;;;;5073822;28;20432;-63
2022/01/06 02:38:34;;;;;;;;;;;;;;;;;;5066978;28;19936;-63
2022/01/06 02:41:00;;;;;;;;;;;;;;;;;;5067501;28;19931;-63
2022/01/06 02:43:27;;;;;;;;;;;;;;;;;;5081430;28;19923;-63
2022/01/06 02:45:53;;;;;;;;;;;;;;;;;;5073769;28;19924;-63
2022/01/06 02:48:19;;;;;;;;;;;;;;;;;;5073734;28;19971;-63
2022/01/06 02:50:45;;;;;;;;;;;;;;;;;;5067151;28;19932;-63
2022/01/06 02:53:11;;;;;;;;;;;;;;;;;;5067371;28;19974;-62
2022/01/06 02:55:37;;;;;;;;;;;;;;;;;;5078444;28;20815;-63
2022/01/06 06:47:46;;;;;;;;;;;;;;;;;;4733332;28;20406;-65
2022/01/06 06:50:15;;;;;;;;;;;;;;;;;;4988703;28;19926;-65
2022/01/06 06:52:41;;;;;;;;;;;;;;;;;;4988488;28;19983;-65
2022/01/06 06:55:07;;;;;;;;;;;;;;;;;;4987516;28;20032;-65
2022/01/06 06:57:33;;;;;;;;;;;;;;;;;;4987607;28;19988;-65
2022/01/06 07:00:03;;;;;;;;;;;;;;;;;;4988189;28;19929;-67
2022/01/06 07:02:29;;;;;;;;;;;;;;;;;;4988031;28;19933;-65
2022/01/06 07:04:55;;;;;;;;;;;;;;;;;;4988077;28;20280;-65
2022/01/06 07:07:21;;;;;;;;;;;;;;;;;;4986124;28;19932;-66
2022/01/06 07:09:47;;;;;;;;;;;;;;;;;;4985999;28;19961;-66
2022/01/06 07:12:13;;;;;;;;;;;;;;;;;;4986016;28;19926;-66
2022/01/06 07:14:39;;;;;;;;;;;;;;;;;;4987399;28;19925;-66
2022/01/06 07:17:05;;;;;;;;;;;;;;;;;;4986464;28;20398;-67
2022/01/06 07:19:32;;;;;;;;;;;;;;;;;;4987707;28;20405;-66
2022/01/06 07:21:58;;;;;;;;;;;;;;;;;;4985428;28;19940;-66
2022/01/06 07:24:24;;;;;;;;;;;;;;;;;;4986840;28;19926;-66
2022/01/06 07:26:50;;;;;;;;;;;;;;;;;;4985719;28;19926;-67
2022/01/06 07:29:16;;;;;;;;;;;;;;;;;;4985545;28;19948;-67
2022/01/06 07:31:42;;;;;;;;;;;;;;;;;;4986106;28;19926;-67
2022/01/06 07:34:08;;;;;;;;;;;;;;;;;;4986213;28;19926;-66
2022/01/06 07:36:34;;;;;;;;;;;;;;;;;;4987500;28;19945;-66
2022/01/06 07:39:00;;;;;;;;;;;;;;;;;;4986644;28;20025;-66
2022/01/06 07:41:26;;;;;;;;;;;;;;;;;;4985935;28;19929;-66
2022/01/06 07:43:52;;;;;;;;;;;;;;;;;;4986639;28;19925;-66
2022/01/06 07:46:18;;;;;;;;;;;;;;;;;;4985778;28;19925;-66
2022/01/06 07:48:55;;;;;;;;;;;;;;;;;;4987396;28;19926;-66
2022/01/06 07:51:21;;;;;;;;;;;;;;;;;;4987678;28;20039;-66
2022/01/06 07:53:46;;;;;;;;;;;;;;;;;;4987057;28;20312;-66
2022/01/06 07:56:12;;;;;;;;;;;;;;;;;;4987409;28;19926;-65
2022/01/06 07:58:38;;;;;;;;;;;;;;;;;;4987492;28;19980;-66
2022/01/06 08:01:04;;;;;;;;;;;;;;;;;;4986209;28;19926;-65
2022/01/06 08:03:30;;;;;;;;;;;;;;;;;;4986965;28;19968;-65
2022/01/06 08:05:56;;;;;;;;;;;;;;;;;;4987542;28;19992;-65
2022/01/06 08:08:22;;;;;;;;;;;;;;;;;;4987361;28;19925;-63
2022/01/06 08:10:48;;;;;;;;;;;;;;;;;;4986465;28;20518;-67
2022/01/06 08:13:14;;;;;;;;;;;;;;;;;;4987775;28;20020;-63
2022/01/06 08:15:40;;;;;;;;;;;;;;;;;;4987281;28;19936;-64
2022/01/06 08:18:06;;;;;;;;;;;;;;;;;;4985231;28;20411;-63
2022/01/06 08:20:35;;;;;;;;;;;;;;;;;;4983629;28;19936;-63
2022/01/06 08:23:01;;;;;;;;;;;;;;;;;;4984293;28;20379;-62
2022/01/06 08:25:27;;;;;;;;;;;;;;;;;;4984302;28;20513;-64
2022/01/06 08:27:53;;;;;;;;;;;;;;;;;;4984552;28;19930;-64
2022/01/06 08:30:19;;;;;;;;;;;;;;;;;;4983287;28;19936;-63
2022/01/06 08:32:45;;;;;;;;;;;;;;;;;;4984706;28;19930;-62
2022/01/06 08:35:11;;;;;;;;;;;;;;;;;;4984549;28;19930;-64
2022/01/06 08:37:37;;;;;;;;;;;;;;;;;;4983133;28;20064;-64
2022/01/06 08:40:03;;;;;;;;;;;;;;;;;;4983965;28;20016;-65
2022/01/06 08:42:29;;;;;;;;;;;;;;;;;;4984209;28;20482;-65
2022/01/06 08:44:55;;;;;;;;;;;;;;;;;;4984458;28;19952;-65
2022/01/06 08:47:21;;;;;;;;;;;;;;;;;;4983342;28;19930;-65
2022/01/06 08:49:47;;;;;;;;;;;;;;;;;;4984635;28;19985;-65
2022/01/06 08:52:13;;;;;;;;;;;;;;;;;;4984704;28;20007;-65
2022/01/06 08:54:39;;;;;;;;;;;;;;;;;;4983802;28;20438;-65
2022/01/06 08:57:05;;;;;;;;;;;;;;;;;;4985170;28;19937;-64
2022/01/06 08:59:31;;;;;;;;;;;;;;;;;;4983735;28;20032;-64
2022/01/06 09:01:57;;;;;;;;;;;;;;;;;;4983199;28;19926;-64
2022/01/06 09:04:23;;;;;;;;;;;;;;;;;;4984207;28;19929;-64
2022/01/06 09:06:49;;;;;;;;;;;;;;;;;;4986123;28;20040;-64
2022/01/06 09:09:15;;;;;;;;;;;;;;;;;;4987130;28;20391;-64
2022/01/06 09:11:41;;;;;;;;;;;;;;;;;;4987650;28;20311;-64
2022/01/06 09:14:07;;;;;;;;;;;;;;;;;;4988276;28;19965;-64
2022/01/06 09:16:33;;;;;;;;;;;;;;;;;;4986581;28;19976;-64
2022/01/06 09:18:59;;;;;;;;;;;;;;;;;;4987506;28;20410;-64
2022/01/06 09:21:25;;;;;;;;;;;;;;;;;;4987661;28;19937;-64
2022/01/06 09:23:51;;;;;;;;;;;;;;;;;;4987929;28;19930;-64
2022/01/06 09:26:17;;;;;;;;;;;;;;;;;;4987650;28;19932;-64
2022/01/06 09:28:43;;;;;;;;;;;;;;;;;;4987588;28;19936;-65
2022/01/06 09:31:09;;;;;;;;;;;;;;;;;;4987052;28;19929;-67
2022/01/06 09:33:35;;;;;;;;;;;;;;;;;;4987748;28;20434;-64
2022/01/06 09:36:01;;;;;;;;;;;;;;;;;;4987765;28;20009;-64
2022/01/06 09:38:27;;;;;;;;;;;;;;;;;;4986738;28;20056;-64
2022/01/06 09:40:53;;;;;;;;;;;;;;;;;;4987034;28;20307;-65
2022/01/06 09:43:19;;;;;;;;;;;;;;;;;;4987419;28;19930;-66
2022/01/06 09:45:45;;;;;;;;;;;;;;;;;;4986574;28;19930;-65
2022/01/06 09:48:12;;;;;;;;;;;;;;;;;;4987045;28;20331;-65
2022/01/06 09:50:42;;;;;;;;;;;;;;;;;;4987457;28;20045;-64
2022/01/06 09:53:10;;;;;;;;;;;;;;;;;;4986070;28;19929;-64
2022/01/06 09:55:36;;;;;;;;;;;;;;;;;;4986914;28;19930;-64
2022/01/06 09:58:02;;;;;;;;;;;;;;;;;;5018165;28;20307;-64
2022/01/06 10:00:28;;;;;;;;;;;;;;;;;;4986033;28;20052;-64
2022/01/06 10:02:54;;;;;;;;;;;;;;;;;;4986931;28;20416;-64
2022/01/06 10:05:20;;;;;;;;;;;;;;;;;;5017931;28;19929;-64
2022/01/06 10:07:46;;;;;;;;;;;;;;;;;;4986949;28;20406;-64
2022/01/06 10:10:12;;;;;;;;;;;;;;;;;;4987003;28;19954;-64
2022/01/06 10:12:40;;;;;;;;;;;;;;;;;;4986548;28;19940;-64
2022/01/06 10:15:06;;;;;;;;;;;;;;;;;;4986160;28;19933;-64
2022/01/06 10:17:32;;;;;;;;;;;;;;;;;;4985931;28;19930;-64
2022/01/06 10:19:57;;;;;;;;;;;;;;;;;;4986398;28;19926;-64
2022/01/06 10:22:23;;;;;;;;;;;;;;;;;;4986517;28;19936;-64
2022/01/06 10:24:49;;;;;;;;;;;;;;;;;;5018112;28;20043;-64
2022/01/06 10:27:15;;;;;;;;;;;;;;;;;;4986296;28;19936;-64
2022/01/06 10:29:41;;;;;;;;;;;;;;;;;;4986036;28;19925;-65
2022/01/06 10:32:07;;;;;;;;;;;;;;;;;;4986190;28;20299;-64
2022/01/06 10:34:33;;;;;;;;;;;;;;;;;;4986392;28;19926;-65
2022/01/06 10:36:59;;;;;;;;;;;;;;;;;;5018123;28;19933;-64
2022/01/06 10:39:27;;;;;;;;;;;;;;;;;;4986584;28;20350;-64
2022/01/06 10:41:53;;;;;;;;;;;;;;;;;;4986398;28;19937;-64
2022/01/06 10:44:19;;;;;;;;;;;;;;;;;;4985790;28;19925;-65
2022/01/06 10:46:45;;;;;;;;;;;;;;;;;;4985113;28;20403;-64
2022/01/06 10:49:11;;;;;;;;;;;;;;;;;;4986337;28;19929;-66
2022/01/06 10:51:37;;;;;;;;;;;;;;;;;;4986018;28;19932;-64
2022/01/06 10:54:03;;;;;;;;;;;;;;;;;;4985534;28;19972;-64
2022/01/06 10:56:29;;;;;;;;;;;;;;;;;;4985999;28;19930;-64
2022/01/06 10:58:55;;;;;;;;;;;;;;;;;;4985577;28;20298;-64
2022/01/06 11:01:21;;;;;;;;;;;;;;;;;;4984498;28;19925;-65
2022/01/06 11:03:46;;;;;;;;;;;;;;;;;;4985964;28;20438;-64
2022/01/06 11:06:12;;;;;;;;;;;;;;;;;;4985896;28;20021;-64
2022/01/06 11:08:41;;;;;;;;;;;;;;;;;;4985955;28;19929;-64
2022/01/06 11:13:33;;;;;;;;;;;;;;;;;;5017499;28;20009;-64
2022/01/06 11:15:59;;;;;;;;;;;;;;;;;;4984047;28;20057;-64
2022/01/06 11:18:25;;;;;;;;;;;;;;;;;;4983651;28;20369;-65
2022/01/06 11:20:51;;;;;;;;;;;;;;;;;;5016583;28;19930;-65
2022/01/06 11:23:17;;;;;;;;;;;;;;;;;;4984820;28;19936;-64
2022/01/06 11:25:43;;;;;;;;;;;;;;;;;;4985448;28;20411;-64
2022/01/06 11:28:09;;;;;;;;;;;;;;;;;;4985347;28;19930;-65
2022/01/06 11:30:35;;;;;;;;;;;;;;;;;;4983624;28;20149;-66
2022/01/06 11:33:01;;;;;;;;;;;;;;;;;;4984763;28;19932;-66
2022/01/06 11:35:27;;;;;;;;;;;;;;;;;;4985144;28;20509;-65
2022/01/06 11:37:53;;;;;;;;;;;;;;;;;;4985570;28;19929;-65
2022/01/06 11:40:19;;;;;;;;;;;;;;;;;;4984873;28;19973;-67
2022/01/06 11:42:45;;;;;;;;;;;;;;;;;;4985228;28;19973;-66
2022/01/06 11:45:11;;;;;;;;;;;;;;;;;;4985026;28;20460;-66
2022/01/06 11:47:37;;;;;;;;;;;;;;;;;;4984457;28;19930;-65
2022/01/06 11:50:05;;;;;;;;;;;;;;;;;;4984686;28;21340;-65
2022/01/06 11:52:31;;;;;;;;;;;;;;;;;;4985009;28;19969;-65
2022/01/06 11:54:57;;;;;;;;;;;;;;;;;;4984569;28;19977;-65
2022/01/06 11:57:23;;;;;;;;;;;;;;;;;;4984919;28;19930;-65
2022/01/06 11:59:49;;;;;;;;;;;;;;;;;;4984449;28;20394;-65
2022/01/06 12:02:15;;;;;;;;;;;;;;;;;;4984652;28;19929;-69
2022/01/06 12:04:41;;;;;;;;;;;;;;;;;;4984944;28;19930;-65
2022/01/06 12:07:07;;;;;;;;;;;;;;;;;;4985309;28;20020;-66
2022/01/06 12:09:33;;;;;;;;;;;;;;;;;;4984766;28;19930;-66
2022/01/06 12:11:59;;;;;;;;;;;;;;;;;;4984772;28;19930;-66
2022/01/06 12:14:25;;;;;;;;;;;;;;;;;;4984793;28;19929;-67
2022/01/06 12:16:51;;;;;;;;;;;;;;;;;;4983473;28;20512;-66
2022/01/06 12:19:17;;;;;;;;;;;;;;;;;;4984360;28;19977;-69
2022/01/06 12:21:43;;;;;;;;;;;;;;;;;;4984913;28;19962;-68
2022/01/06 12:24:09;;;;;;;;;;;;;;;;;;4984926;28;19926;-66
2022/01/06 12:26:36;;;;;;;;;;;;;;;;;;4984428;28;19936;-66
2022/01/06 12:29:02;;;;;;;;;;;;;;;;;;4984747;28;19930;-66
2022/01/06 12:31:28;;;;;;;;;;;;;;;;;;4983818;28;19925;-66
2022/01/06 12:33:58;;;;;;;;;;;;;;;;;;4984864;28;20438;-66
2022/01/06 12:36:24;;;;;;;;;;;;;;;;;;4984690;28;19929;-66
2022/01/06 12:38:50;;;;;;;;;;;;;;;;;;4984591;28;19933;-66
2022/01/06 12:41:17;;;;;;;;;;;;;;;;;;4988006;28;19988;-66
2022/01/06 12:43:43;;;;;;;;;;;;;;;;;;4988009;28;19926;-66
2022/01/06 12:46:09;;;;;;;;;;;;;;;;;;4987681;28;19934;-65
2022/01/06 12:48:35;;;;;;;;;;;;;;;;;;4987922;28;19930;-65
2022/01/06 12:51:01;;;;;;;;;;;;;;;;;;4988132;28;19936;-65
2022/01/06 12:53:27;;;;;;;;;;;;;;;;;;4987539;28;19926;-65
2022/01/06 12:55:53;;;;;;;;;;;;;;;;;;4988114;28;19949;-66
2022/01/06 12:58:19;;;;;;;;;;;;;;;;;;4987834;28;20295;-65
2022/01/06 13:00:45;;;;;;;;;;;;;;;;;;4987709;28;19937;-66
2022/01/06 13:03:11;;;;;;;;;;;;;;;;;;4988166;28;19932;-65
2022/01/06 13:05:37;;;;;;;;;;;;;;;;;;4986946;28;19933;-65
2022/01/06 13:08:03;;;;;;;;;;;;;;;;;;4987592;28;19929;-65
2022/01/06 13:10:29;;;;;;;;;;;;;;;;;;4987321;28;19940;-65
2022/01/06 13:12:55;;;;;;;;;;;;;;;;;;5018986;28;20306;-65
2022/01/06 13:15:21;;;;;;;;;;;;;;;;;;5017491;28;19929;-66
2022/01/06 13:17:47;;;;;;;;;;;;;;;;;;5019057;28;20662;-66
2022/01/06 13:20:15;;;;;;;;;;;;;;;;;;4988309;28;20012;-66
2022/01/06 13:23:13;;;;;;;;;;;;;;;;;;4987744;28;19926;-65
2022/01/06 13:25:37;;;;;;;;;;;;;;;;;;4987537;28;19929;-65
2022/01/06 13:28:06;;;;;;;;;;;;;;;;;;4987740;28;20149;-65
2022/01/06 13:30:33;;;;;;;;;;;;;;;;;;4986591;28;19929;-65
2022/01/06 13:32:59;;;;;;;;;;;;;;;;;;4987653;28;19922;-64
2022/01/06 13:35:25;;;;;;;;;;;;;;;;;;4987258;28;19988;-66
2022/01/06 13:37:51;;;;;;;;;;;;;;;;;;4987896;28;20658;-66
2022/01/06 13:40:17;;;;;;;;;;;;;;;;;;4987567;28;19932;-66
2022/01/06 13:42:44;;;;;;;;;;;;;;;;;;4987359;28;20360;-67
2022/01/06 13:47:50;;;;;;;;;;;;;;;;;;4986532;28;20423;-66
2022/01/06 13:53:00;;;;;;;;;;;;;;;;;;4986391;28;19930;-65
2022/01/06 13:55:26;;;;;;;;;;;;;;;;;;5017880;28;20364;-65
2022/01/06 13:57:52;;;;;;;;;;;;;;;;;;5018976;28;19940;-66
2022/01/06 14:00:18;;;;;;;;;;;;;;;;;;4986127;28;19926;-67
2022/01/06 14:02:44;;;;;;;;;;;;;;;;;;4987013;28;19983;-66
2022/01/06 14:05:10;;;;;;;;;;;;;;;;;;4987345;28;20394;-65
2022/01/06 14:07:36;;;;;;;;;;;;;;;;;;4986824;28;20087;-65
2022/01/06 14:10:05;;;;;;;;;;;;;;;;;;4987018;28;20446;-65
2022/01/06 14:12:31;;;;;;;;;;;;;;;;;;4986669;28;19937;-66
2022/01/06 14:14:57;;;;;;;;;;;;;;;;;;4986502;28;20323;-66
2022/01/06 14:17:23;;;;;;;;;;;;;;;;;;4986182;28;19937;-66
2022/01/06 14:19:49;;;;;;;;;;;;;;;;;;4986588;28;19926;-65
2022/01/06 14:22:15;;;;;;;;;;;;;;;;;;4986779;28;20391;-66
2022/01/06 14:24:42;;;;;;;;;;;;;;;;;;4986891;28;19933;-65
2022/01/06 14:27:08;;;;;;;;;;;;;;;;;;4986197;28;19926;-65
2022/01/06 14:29:34;;;;;;;;;;;;;;;;;;4985459;28;20418;-65
2022/01/06 14:32:00;;;;;;;;;;;;;;;;;;4986756;28;19922;-64
2022/01/06 14:34:26;;;;;;;;;;;;;;;;;;4985817;28;19981;-65
2022/01/06 14:36:52;;;;;;;;;;;;;;;;;;4986754;28;19930;-65
2022/01/06 14:39:18;;;;;;;;;;;;;;;;;;4986087;28;20376;-66
2022/01/06 14:41:44;;;;;;;;;;;;;;;;;;4986234;28;19940;-66
2022/01/06 14:44:10;;;;;;;;;;;;;;;;;;4986446;28;19943;-65
2022/01/06 14:46:36;;;;;;;;;;;;;;;;;;4984862;28;20292;-65
2022/01/06 14:49:02;;;;;;;;;;;;;;;;;;4986303;28;20447;-65
2022/01/06 14:51:30;;;;;;;;;;;;;;;;;;4986022;28;20446;-65
2022/01/06 14:53:56;;;;;;;;;;;;;;;;;;4985951;28;20294;-66
2022/01/06 14:56:22;;;;;;;;;;;;;;;;;;4986153;28;19925;-64
2022/01/06 14:58:48;;;;;;;;;;;;;;;;;;4986280;28;20810;-65
2022/01/06 15:01:14;;;;;;;;;;;;;;;;;;4985398;28;19929;-65
2022/01/06 15:03:40;;;;;;;;;;;;;;;;;;4985354;28;20304;-65
2022/01/06 15:06:06;;;;;;;;;;;;;;;;;;5016642;28;19925;-65
2022/01/06 15:08:32;;;;;;;;;;;;;;;;;;4985571;28;20009;-64
2022/01/06 15:10:58;;;;;;;;;;;;;;;;;;4984688;28;19962;-65
2022/01/06 15:13:24;;;;;;;;;;;;;;;;;;4985089;28;19930;-65
2022/01/06 15:15:50;;;;;;;;;;;;;;;;;;4984971;28;19928;-65
2022/01/06 15:18:16;;;;;;;;;;;;;;;;;;5016614;28;19926;-65
2022/01/06 15:20:42;;;;;;;;;;;;;;;;;;4986011;28;19936;-65
2022/01/06 15:23:08;;;;;;;;;;;;;;;;;;4985450;28;19956;-65
2022/01/06 15:25:34;;;;;;;;;;;;;;;;;;4985390;28;19984;-65
2022/01/06 15:28:00;;;;;;;;;;;;;;;;;;4985342;28;19930;-65
2022/01/06 15:30:26;;;;;;;;;;;;;;;;;;4983945;28;19936;-65
2022/01/06 15:32:52;;;;;;;;;;;;;;;;;;4985586;28;20291;-65
2022/01/06 15:35:18;;;;;;;;;;;;;;;;;;4985328;28;19936;-66
2022/01/06 15:37:44;;;;;;;;;;;;;;;;;;5017316;28;19937;-66
2022/01/06 15:40:10;;;;;;;;;;;;;;;;;;4985749;28;19928;-65
2022/01/06 15:42:37;;;;;;;;;;;;;;;;;;4985102;28;19926;-64
2022/01/06 15:45:03;;;;;;;;;;;;;;;;;;4983926;28;19933;-64
2022/01/06 15:47:30;;;;;;;;;;;;;;;;;;4983961;28;19949;-64
2022/01/06 15:49:59;;;;;;;;;;;;;;;;;;4984712;28;20315;-64
2022/01/06 15:52:25;;;;;;;;;;;;;;;;;;4983484;28;19929;-65
2022/01/06 15:54:51;;;;;;;;;;;;;;;;;;4984269;28;20265;-64
2022/01/06 15:57:17;;;;;;;;;;;;;;;;;;4983725;28;19928;-64
2022/01/06 15:59:52;;;;;;;;;;;;;;;;;;4983694;28;19926;-64
2022/01/06 16:05:12;;;;;;;;;;;;;;;;;;4984628;28;19929;-64
2022/01/06 16:07:38;;;;;;;;;;;;;;;;;;4985110;28;19940;-64
2022/01/06 16:10:04;;;;;;;;;;;;;;;;;;4984828;28;19926;-64
2022/01/06 16:12:30;;;;;;;;;;;;;;;;;;4983826;28;19922;-64
2022/01/06 16:14:56;;;;;;;;;;;;;;;;;;4985436;28;19960;-64
2022/01/06 16:17:22;;;;;;;;;;;;;;;;;;4988605;28;20438;-65
2022/01/06 16:19:48;;;;;;;;;;;;;;;;;;4988921;28;19964;-65
2022/01/06 16:22:14;;;;;;;;;;;;;;;;;;4988525;28;19973;-65
2022/01/06 16:24:40;;;;;;;;;;;;;;;;;;4988699;28;19925;-66
2022/01/06 16:27:07;;;;;;;;;;;;;;;;;;5020387;28;20525;-64
2022/01/06 16:29:33;;;;;;;;;;;;;;;;;;4987381;28;19938;-64
2022/01/06 16:31:59;;;;;;;;;;;;;;;;;;4988687;28;20375;-64
2022/01/06 16:34:25;;;;;;;;;;;;;;;;;;5036555;28;19979;-64
2022/01/06 16:36:51;;;;;;;;;;;;;;;;;;4988086;28;19945;-64
2022/01/06 16:39:17;;;;;;;;;;;;;;;;;;4988626;28;20398;-64
2022/01/06 16:41:43;;;;;;;;;;;;;;;;;;4988302;28;19934;-64
2022/01/06 16:44:14;;;;;;;;;;;;;;;;;;4986829;28;20375;-64
2022/01/06 16:46:40;;;;;;;;;;;;;;;;;;4987654;28;19925;-65
2022/01/06 16:49:07;;;;;;;;;;;;;;;;;;4988376;28;20161;-64
2022/01/06 16:51:33;;;;;;;;;;;;;;;;;;4987737;28;19952;-65
2022/01/06 16:53:59;;;;;;;;;;;;;;;;;;5019678;28;21034;-64
2022/01/06 16:56:25;;;;;;;;;;;;;;;;;;4987995;28;19941;-64
2022/01/06 16:58:51;;;;;;;;;;;;;;;;;;5019786;28;19952;-64
2022/01/06 17:01:17;;;;;;;;;;;;;;;;;;5018846;28;20387;-65
2022/01/06 17:03:43;;;;;;;;;;;;;;;;;;4988368;28;19936;-65
2022/01/06 17:06:10;;;;;;;;;;;;;;;;;;4987889;28;20299;-64
2022/01/06 17:08:36;;;;;;;;;;;;;;;;;;4986784;28;19929;-64
2022/01/06 17:11:02;;;;;;;;;;;;;;;;;;4988103;28;19926;-64
2022/01/06 17:13:28;;;;;;;;;;;;;;;;;;4987702;28;19949;-67
2022/01/06 17:15:54;;;;;;;;;;;;;;;;;;4986679;28;20292;-64
2022/01/06 17:18:20;;;;;;;;;;;;;;;;;;4987005;28;19929;-65
2022/01/06 17:20:46;;;;;;;;;;;;;;;;;;4988396;28;19941;-64
2022/01/06 17:23:12;;;;;;;;;;;;;;;;;;5019180;28;19937;-64
2022/01/06 17:25:38;;;;;;;;;;;;;;;;;;4986612;28;19969;-64
2022/01/06 17:28:06;;;;;;;;;;;;;;;;;;4987101;28;19930;-64
2022/01/06 17:30:32;;;;;;;;;;;;;;;;;;4986383;28;19926;-64
2022/01/06 17:32:58;;;;;;;;;;;;;;;;;;4987296;28;19932;-64
2022/01/06 17:35:24;;;;;;;;;;;;;;;;;;4986898;28;19925;-64
2022/01/06 17:37:52;;;;;;;;;;;;;;;;;;4987700;28;19926;-65
2022/01/06 17:40:18;;;;;;;;;;;;;;;;;;4987096;28;20472;-66
2022/01/06 17:42:45;;;;;;;;;;;;;;;;;;5019115;28;19942;-65
2022/01/06 17:45:11;;;;;;;;;;;;;;;;;;4986670;28;19932;-64
2022/01/06 17:47:37;;;;;;;;;;;;;;;;;;4986302;28;20179;-64
2022/01/06 17:50:03;;;;;;;;;;;;;;;;;;4987182;28;19929;-64
2022/01/06 17:52:29;;;;;;;;;;;;;;;;;;4986978;28;19972;-64
2022/01/06 17:54:55;;;;;;;;;;;;;;;;;;5018139;28;20056;-64
2022/01/06 17:57:21;;;;;;;;;;;;;;;;;;4986501;28;19929;-64
2022/01/06 17:59:47;;;;;;;;;;;;;;;;;;4986251;28;19930;-65
2022/01/06 18:02:14;;;;;;;;;;;;;;;;;;4987275;28;19926;-64
2022/01/06 18:04:43;;;;;;;;;;;;;;;;;;4986172;28;20372;-64
2022/01/06 18:07:11;;;;;;;;;;;;;;;;;;4987028;28;19930;-63
2022/01/06 18:12:04;;;;;;;;;;;;;;;;;;4986963;28;19984;-63
2022/01/06 18:14:30;;;;;;;;;;;;;;;;;;4985820;28;19925;-64
2022/01/06 18:16:56;;;;;;;;;;;;;;;;;;5018050;28;20454;-64
2022/01/06 18:19:23;;;;;;;;;;;;;;;;;;4986420;28;20024;-65
2022/01/06 18:21:49;;;;;;;;;;;;;;;;;;4986940;28;20024;-65
2022/01/06 18:24:15;;;;;;;;;;;;;;;;;;4987602;28;19933;-64
2022/01/06 18:26:41;;;;;;;;;;;;;;;;;;4986483;28;19926;-64
2022/01/06 18:29:08;;;;;;;;;;;;;;;;;;4985863;28;19936;-64
2022/01/06 18:31:34;;;;;;;;;;;;;;;;;;4986617;28;19976;-64
2022/01/06 18:34:00;;;;;;;;;;;;;;;;;;4986071;28;19970;-64
2022/01/06 18:36:26;;;;;;;;;;;;;;;;;;4986472;28;19929;-64
2022/01/06 18:38:52;;;;;;;;;;;;;;;;;;4986574;28;19949;-65
2022/01/06 18:41:18;;;;;;;;;;;;;;;;;;4985754;28;20042;-64
2022/01/06 18:43:44;;;;;;;;;;;;;;;;;;4985818;28;20016;-64
2022/01/06 18:46:12;;;;;;;;;;;;;;;;;;4986055;28;19929;-65
2022/01/06 18:48:38;;;;;;;;;;;;;;;;;;4986197;28;20335;-64
2022/01/06 18:51:04;;;;;;;;;;;;;;;;;;5017041;28;19989;-64
2022/01/06 18:53:30;;;;;;;;;;;;;;;;;;4985561;28;19926;-64
2022/01/06 18:55:56;;;;;;;;;;;;;;;;;;4986566;28;20016;-64
2022/01/06 18:58:23;;;;;;;;;;;;;;;;;;4985918;28;19969;-64
2022/01/06 19:00:49;;;;;;;;;;;;;;;;;;4985542;28;19980;-65
2022/01/06 19:03:15;;;;;;;;;;;;;;;;;;4986494;28;19932;-62
2022/01/06 19:05:41;;;;;;;;;;;;;;;;;;4985341;28;19929;-62
2022/01/06 19:08:08;;;;;;;;;;;;;;;;;;4986042;28;19929;-62
2022/01/06 19:10:34;;;;;;;;;;;;;;;;;;4985751;28;19926;-62
2022/01/06 19:13:00;;;;;;;;;;;;;;;;;;4985774;28;19949;-62
2022/01/06 19:15:28;;;;;;;;;;;;;;;;;;4984899;28;20020;-62
2022/01/06 19:17:55;;;;;;;;;;;;;;;;;;4985014;28;19926;-62
2022/01/06 19:20:21;;;;;;;;;;;;;;;;;;4985498;28;19930;-62
2022/01/06 19:22:47;;;;;;;;;;;;;;;;;;4986025;28;19936;-62
2022/01/06 19:25:14;;;;;;;;;;;;;;;;;;4986181;28;19929;-62
2022/01/06 19:27:40;;;;;;;;;;;;;;;;;;4985318;28;19936;-62
2022/01/06 19:30:06;;;;;;;;;;;;;;;;;;5015299;28;19929;-62
2022/01/06 19:32:32;;;;;;;;;;;;;;;;;;4985405;28;19937;-62
2022/01/06 19:34:58;;;;;;;;;;;;;;;;;;4984601;28;19925;-62
2022/01/06 19:37:26;;;;;;;;;;;;;;;;;;4984271;28;19973;-62
2022/01/06 19:39:52;;;;;;;;;;;;;;;;;;4984319;28;19973;-62
2022/01/06 19:42:18;;;;;;;;;;;;;;;;;;4983541;28;19930;-63
2022/01/06 19:44:44;;;;;;;;;;;;;;;;;;4983914;28;19926;-63
2022/01/06 19:47:11;;;;;;;;;;;;;;;;;;4984231;28;20455;-62
2022/01/06 19:49:38;;;;;;;;;;;;;;;;;;4984537;28;19980;-63
2022/01/06 19:52:04;;;;;;;;;;;;;;;;;;4985208;28;19925;-62
2022/01/06 19:54:30;;;;;;;;;;;;;;;;;;4984440;28;20009;-62
2022/01/06 19:56:56;;;;;;;;;;;;;;;;;;4985254;28;20013;-62
2022/01/06 19:59:27;;;;;;;;;;;;;;;;;;4983798;28;19997;-63
2022/01/06 20:01:53;;;;;;;;;;;;;;;;;;4985132;28;19930;-62
2022/01/06 20:04:19;;;;;;;;;;;;;;;;;;4984769;28;20641;-63
2022/01/06 20:06:45;;;;;;;;;;;;;;;;;;5016507;28;20463;-63
2022/01/06 20:09:11;;;;;;;;;;;;;;;;;;4984598;28;19929;-62
2022/01/06 20:11:37;;;;;;;;;;;;;;;;;;4983730;28;19933;-62
2022/01/06 20:14:03;;;;;;;;;;;;;;;;;;4983810;28;19966;-62
2022/01/06 20:16:29;;;;;;;;;;;;;;;;;;4983842;28;20287;-62
2022/01/06 20:18:56;;;;;;;;;;;;;;;;;;4984091;28;20665;-62
2022/01/06 20:21:24;;;;;;;;;;;;;;;;;;4984083;28;19950;-63
2022/01/06 20:23:50;;;;;;;;;;;;;;;;;;5012521;28;20419;-63
2022/01/06 20:26:16;;;;;;;;;;;;;;;;;;4984177;28;20330;-62
2022/01/06 20:28:42;;;;;;;;;;;;;;;;;;4983101;28;20347;-62
2022/01/06 20:31:08;;;;;;;;;;;;;;;;;;4983946;28;20434;-62
2022/01/06 20:33:34;;;;;;;;;;;;;;;;;;4984306;28;19968;-62
2022/01/06 20:36:00;;;;;;;;;;;;;;;;;;4984051;28;20371;-62
2022/01/06 20:38:26;;;;;;;;;;;;;;;;;;4984502;28;19930;-62
2022/01/06 20:40:52;;;;;;;;;;;;;;;;;;4984191;28;19952;-62
2022/01/06 20:43:18;;;;;;;;;;;;;;;;;;4983635;28;19930;-63
2022/01/06 20:45:44;;;;;;;;;;;;;;;;;;4985417;28;19948;-62
2022/01/06 20:53:21;;;;;;;;;;;;;;;;;;4983742;28;19934;-62
2022/01/06 20:55:47;;;;;;;;;;;;;;;;;;4984850;28;19932;-62